createdAt,value
2022-12-04T00:01:05.956Z,3.21
2022-12-04T00:03:08.622Z,3.21
2022-12-04T00:05:13.058Z,3.21
2022-12-04T00:07:15.821Z,3.21
2022-12-04T00:09:20.016Z,3.20
2022-12-04T00:11:24.656Z,3.21
2022-12-04T00:13:27.675Z,3.23
2022-12-04T00:15:30.235Z,3.22
2022-12-04T00:17:32.981Z,3.19
2022-12-04T00:19:35.608Z,3.20
2022-12-04T00:21:39.608Z,3.20
2022-12-04T00:23:42.733Z,3.18
2022-12-04T00:25:48.539Z,3.17
2022-12-04T00:27:51.167Z,3.16
2022-12-04T00:29:53.989Z,3.17
2022-12-04T00:31:56.839Z,3.16
2022-12-04T00:34:00.553Z,3.17
2022-12-04T00:36:05.762Z,3.17
2022-12-04T00:38:09.706Z,3.13
2022-12-04T00:40:13.475Z,3.17
2022-12-04T00:42:16.089Z,3.14
2022-12-04T00:44:18.690Z,3.12
2022-12-04T00:46:22.095Z,3.18
2022-12-04T00:48:27.550Z,3.16
2022-12-04T00:50:30.181Z,3.17
2022-12-04T00:52:32.765Z,3.12
2022-12-04T00:54:36.829Z,3.17
2022-12-04T00:56:40.143Z,3.17
2022-12-04T00:58:42.850Z,3.13
2022-12-04T01:00:45.488Z,3.15
2022-12-04T01:02:48.171Z,3.16
2022-12-04T01:04:50.855Z,3.17
2022-12-04T01:06:53.939Z,3.17
2022-12-04T01:08:57.544Z,3.15
2022-12-04T01:11:05.603Z,3.18
2022-12-04T01:13:08.224Z,3.16
2022-12-04T01:15:11.565Z,3.18
2022-12-04T01:17:14.202Z,3.15
2022-12-04T01:19:16.829Z,3.19
2022-12-04T01:21:20.141Z,3.17
2022-12-04T01:23:22.870Z,3.17
2022-12-04T01:25:25.545Z,3.18
2022-12-04T01:27:29.476Z,3.19
2022-12-04T01:29:32.247Z,3.19
2022-12-04T01:31:34.903Z,3.17
2022-12-04T01:33:38.606Z,3.19
2022-12-04T01:35:41.214Z,3.15
2022-12-04T01:37:43.871Z,3.14
2022-12-04T01:39:46.463Z,3.13
2022-12-04T01:41:49.123Z,3.11
2022-12-04T01:44:15.357Z,3.10
2022-12-04T01:46:17.984Z,3.08
2022-12-04T01:48:27.239Z,3.12
2022-12-04T01:50:30.328Z,3.11
2022-12-04T01:52:33.056Z,3.11
2022-12-04T01:54:38.306Z,3.11
2022-12-04T01:56:45.236Z,3.09
2022-12-04T01:58:55.078Z,3.12
2022-12-04T02:01:08.235Z,3.15
2022-12-04T02:03:12.674Z,3.12
2022-12-04T02:05:17.877Z,3.12
2022-12-04T02:07:20.492Z,3.11
2022-12-04T02:09:26.901Z,3.12
2022-12-04T02:11:39.285Z,3.15
2022-12-04T02:13:53.461Z,3.16
2022-12-04T02:16:07.591Z,3.13
2022-12-04T02:18:17.744Z,3.13
2022-12-04T02:20:28.963Z,3.15
2022-12-04T02:22:54.717Z,3.15
2022-12-04T02:25:00.793Z,3.15
2022-12-04T02:27:06.349Z,3.15
2022-12-04T02:29:16.683Z,3.15
2022-12-04T02:31:22.814Z,3.15
2022-12-04T02:33:28.923Z,3.15
2022-12-04T02:35:35.520Z,3.13
2022-12-04T02:37:41.105Z,3.16
2022-12-04T02:39:51.141Z,3.13
2022-12-04T02:41:58.679Z,3.15
2022-12-04T02:44:06.114Z,3.13
2022-12-04T02:46:15.911Z,3.12
2022-12-04T02:48:21.657Z,3.13
2022-12-04T02:50:25.514Z,3.12
2022-12-04T02:52:36.161Z,3.13
2022-12-04T02:54:43.058Z,3.13
2022-12-04T02:56:48.363Z,3.15
2022-12-04T02:58:54.285Z,3.14
2022-12-04T03:01:01.468Z,3.14
2022-12-04T03:03:09.887Z,3.13
2022-12-04T03:05:16.957Z,3.12
2022-12-04T03:07:25.510Z,3.12
2022-12-04T03:09:33.968Z,3.11
2022-12-04T03:11:39.037Z,3.11
2022-12-04T03:13:47.261Z,3.13
2022-12-04T03:15:54.742Z,3.12
2022-12-04T03:18:02.579Z,3.11
2022-12-04T03:20:10.864Z,3.12
2022-12-04T03:22:18.533Z,3.13
2022-12-04T03:24:25.678Z,3.12
2022-12-04T03:26:34.038Z,3.12
2022-12-04T03:28:45.089Z,3.12
2022-12-04T03:30:55.752Z,3.13
2022-12-04T03:33:04.012Z,3.15
2022-12-04T03:35:14.826Z,3.14
2022-12-04T03:37:20.919Z,3.12
2022-12-04T03:39:27.591Z,3.11
2022-12-04T03:41:35.254Z,3.11
2022-12-04T03:43:46.658Z,3.11
2022-12-04T03:45:54.955Z,3.10
2022-12-04T03:48:02.832Z,3.07
2022-12-04T03:50:13.709Z,3.07
2022-12-04T03:52:24.081Z,3.09
2022-12-04T03:54:31.220Z,3.07
2022-12-04T03:56:38.804Z,3.09
2022-12-04T03:58:47.172Z,3.10
2022-12-04T04:00:52.750Z,3.10
2022-12-04T04:03:00.839Z,3.10
2022-12-04T04:05:07.172Z,3.10
2022-12-04T04:07:16.583Z,3.09
2022-12-04T04:09:23.293Z,3.08
2022-12-04T04:11:31.403Z,3.09
2022-12-04T04:13:56.494Z,3.11
2022-12-04T04:16:16.752Z,3.10
2022-12-04T04:18:36.919Z,3.10
2022-12-04T04:21:10.251Z,3.08
2022-12-04T04:23:29.903Z,3.08
2022-12-04T04:25:34.519Z,3.07
2022-12-04T04:27:37.129Z,3.07
2022-12-04T04:29:40.479Z,3.04
2022-12-04T04:31:46.359Z,3.03
2022-12-04T04:33:57.622Z,3.03
2022-12-04T04:36:09.549Z,3.06
2022-12-04T04:38:21.128Z,3.04
2022-12-04T04:40:34.880Z,3.07
2022-12-04T04:42:46.705Z,3.08
2022-12-04T04:44:52.739Z,3.02
2022-12-04T04:46:59.794Z,3.05
2022-12-04T04:49:06.071Z,3.07
2022-12-04T04:51:09.384Z,3.08
2022-12-04T04:53:17.001Z,3.06
2022-12-04T04:55:22.017Z,3.07
2022-12-04T04:57:29.340Z,3.10
2022-12-04T04:59:32.123Z,3.12
2022-12-04T05:01:34.862Z,3.13
2022-12-04T05:03:37.693Z,3.12
2022-12-04T05:05:40.334Z,3.11
2022-12-04T05:07:43.049Z,3.07
2022-12-04T05:09:45.743Z,3.09
2022-12-04T05:11:49.669Z,3.09
2022-12-04T05:13:52.725Z,3.06
2022-12-04T05:15:59.686Z,3.07
2022-12-04T05:18:02.311Z,3.05
2022-12-04T05:20:04.190Z,3.03
2022-12-04T05:22:06.809Z,3.09
2022-12-04T05:24:12.193Z,3.07
2022-12-04T05:26:14.804Z,3.07
2022-12-04T05:28:18.765Z,3.07
2022-12-04T05:30:21.530Z,3.10
2022-12-04T05:32:26.235Z,3.09
2022-12-04T05:34:28.830Z,3.08
2022-12-04T05:36:31.397Z,3.08
2022-12-04T05:38:34.691Z,3.08
2022-12-04T05:40:37.484Z,3.06
2022-12-04T05:42:40.060Z,3.07
2022-12-04T05:44:44.159Z,3.08
2022-12-04T05:46:46.788Z,3.08
2022-12-04T05:48:49.472Z,3.08
2022-12-04T05:50:52.071Z,3.08
2022-12-04T05:52:54.740Z,3.10
2022-12-04T05:54:57.336Z,3.10
2022-12-04T05:56:59.994Z,3.11
2022-12-04T05:59:02.634Z,3.11
2022-12-04T06:01:14.367Z,3.09
2022-12-04T06:03:16.984Z,3.11
2022-12-04T06:05:19.615Z,3.10
2022-12-04T06:07:22.313Z,3.08
2022-12-04T06:09:24.939Z,3.08
2022-12-04T06:11:29.251Z,3.07
2022-12-04T06:13:31.850Z,3.06
2022-12-04T06:15:38.470Z,3.09
2022-12-04T06:17:42.456Z,3.09
2022-12-04T06:19:45.069Z,3.09
2022-12-04T06:21:49.453Z,3.09
2022-12-04T06:23:52.709Z,3.08
2022-12-04T06:25:56.278Z,3.09
2022-12-04T06:27:59.040Z,3.10
2022-12-04T06:30:01.960Z,3.09
2022-12-04T06:32:04.892Z,3.10
2022-12-04T06:34:09.617Z,3.10
2022-12-04T06:36:14.547Z,3.09
2022-12-04T06:38:17.164Z,3.09
2022-12-04T06:40:19.938Z,3.09
2022-12-04T06:42:22.549Z,3.09
2022-12-04T06:44:25.173Z,3.07
2022-12-04T06:46:30.377Z,3.06
2022-12-04T06:48:33.797Z,3.05
2022-12-04T06:50:37.790Z,3.03
2022-12-04T06:52:40.415Z,3.03
2022-12-04T06:54:43.102Z,3.03
2022-12-04T06:56:45.746Z,3.03
2022-12-04T06:58:50.501Z,3.03
2022-12-04T07:00:53.204Z,3.03
2022-12-04T07:02:55.836Z,3.04
2022-12-04T07:04:58.465Z,3.05
2022-12-04T07:07:02.461Z,3.02
2022-12-04T07:09:07.355Z,3.03
2022-12-04T07:11:10.400Z,3.05
2022-12-04T07:13:13.011Z,3.02
2022-12-04T07:15:15.761Z,3.04
2022-12-04T07:17:18.460Z,3.05
2022-12-04T07:19:21.132Z,3.04
2022-12-04T07:21:25.523Z,3.06
2022-12-04T07:23:29.452Z,3.08
2022-12-04T07:25:32.071Z,3.06
2022-12-04T07:27:34.670Z,3.07
2022-12-04T07:29:37.300Z,3.03
2022-12-04T07:31:40.117Z,3.02
2022-12-04T07:33:43.365Z,3.03
2022-12-04T07:35:45.987Z,3.07
2022-12-04T07:37:48.746Z,3.07
2022-12-04T07:39:53.683Z,3.08
2022-12-04T07:41:56.523Z,3.09
2022-12-04T07:43:59.109Z,3.09
2022-12-04T07:46:06.141Z,3.11
2022-12-04T07:48:08.894Z,3.11
2022-12-04T07:50:11.735Z,3.08
2022-12-04T07:52:14.345Z,3.09
2022-12-04T07:54:16.952Z,3.08
2022-12-04T07:56:21.853Z,3.12
2022-12-04T07:58:24.472Z,3.12
2022-12-04T08:00:27.317Z,3.12
2022-12-04T08:02:29.905Z,3.11
2022-12-04T08:04:32.605Z,3.09
2022-12-04T08:06:35.945Z,3.11
2022-12-04T08:08:38.707Z,3.10
2022-12-04T08:10:41.611Z,3.10
2022-12-04T08:12:45.559Z,3.12
2022-12-04T08:14:49.850Z,3.12
2022-12-04T08:16:53.047Z,3.11
2022-12-04T08:18:59.318Z,3.15
2022-12-04T08:21:06.534Z,3.15
2022-12-04T08:23:09.229Z,3.12
2022-12-04T08:25:11.819Z,3.14
2022-12-04T08:27:14.652Z,3.17
2022-12-04T08:29:18.624Z,3.11
2022-12-04T08:31:23.429Z,3.15
2022-12-04T08:33:29.130Z,3.16
2022-12-04T08:35:31.736Z,3.16
2022-12-04T08:37:37.410Z,3.16
2022-12-04T08:39:40.032Z,3.20
2022-12-04T08:41:45.678Z,3.17
2022-12-04T08:43:48.634Z,3.15
2022-12-04T08:45:57.842Z,3.17
2022-12-04T08:48:00.691Z,3.16
2022-12-04T08:50:03.427Z,3.20
2022-12-04T08:52:06.268Z,3.19
2022-12-04T08:54:10.099Z,3.22
2022-12-04T08:56:13.164Z,3.20
2022-12-04T08:58:16.106Z,3.21
2022-12-04T09:00:19.320Z,3.19
2022-12-04T09:02:23.312Z,3.21
2022-12-04T09:04:25.876Z,3.23
2022-12-04T09:06:28.537Z,3.23
2022-12-04T09:08:31.762Z,3.26
2022-12-04T09:10:35.109Z,3.25
2022-12-04T09:12:37.826Z,3.27
2022-12-04T09:14:40.401Z,3.30
2022-12-04T09:16:42.991Z,3.32
2022-12-04T09:18:47.364Z,3.33
2022-12-04T09:20:56.504Z,3.32
2022-12-04T09:23:04.030Z,3.31
2022-12-04T09:25:08.125Z,3.31
2022-12-04T09:27:14.774Z,3.34
2022-12-04T09:29:17.759Z,3.35
2022-12-04T09:31:21.505Z,3.34
2022-12-04T09:33:24.364Z,3.32
2022-12-04T09:35:29.847Z,3.34
2022-12-04T09:37:33.482Z,3.35
2022-12-04T09:39:36.231Z,3.36
2022-12-04T09:42:03.869Z,3.36
2022-12-04T09:44:11.412Z,3.38
2022-12-04T09:46:20.224Z,3.37
2022-12-04T09:48:28.167Z,3.37
2022-12-04T09:50:38.155Z,3.38
2022-12-04T09:52:48.873Z,3.38
2022-12-04T09:54:53.570Z,3.40
2022-12-04T09:57:01.268Z,3.43
2022-12-04T09:59:12.128Z,3.42
2022-12-04T10:01:22.765Z,3.40
2022-12-04T10:03:29.215Z,3.42
2022-12-04T10:05:46.862Z,3.42
2022-12-04T10:08:00.247Z,3.43
2022-12-04T10:10:07.875Z,3.42
2022-12-04T10:12:18.932Z,3.42
2022-12-04T10:14:49.368Z,3.43
2022-12-04T10:17:11.541Z,3.40
2022-12-04T10:19:23.731Z,3.43
2022-12-04T10:21:39.529Z,3.42
2022-12-04T10:23:56.251Z,3.42
2022-12-04T10:25:59.726Z,3.41
2022-12-04T10:28:23.319Z,3.43
2022-12-04T10:30:29.319Z,3.42
2022-12-04T10:32:34.011Z,3.43
2022-12-04T10:34:42.534Z,3.44
2022-12-04T10:36:54.604Z,3.41
2022-12-04T10:38:59.817Z,3.41
2022-12-04T10:41:10.215Z,3.45
2022-12-04T10:43:20.508Z,3.47
2022-12-04T10:45:24.631Z,3.44
2022-12-04T10:47:28.833Z,3.46
2022-12-04T10:49:35.301Z,3.44
2022-12-04T10:51:41.287Z,3.45
2022-12-04T10:53:49.285Z,3.45
2022-12-04T10:55:51.881Z,3.46
2022-12-04T10:57:54.490Z,3.44
2022-12-04T10:59:58.800Z,3.49
2022-12-04T11:02:07.162Z,3.47
2022-12-04T11:04:19.986Z,3.48
2022-12-04T11:06:27.756Z,3.46
2022-12-04T11:08:36.268Z,3.44
2022-12-04T11:10:43.150Z,3.42
2022-12-04T11:12:55.439Z,3.44
2022-12-04T11:15:02.900Z,3.44
2022-12-04T11:17:07.711Z,3.44
2022-12-04T11:19:22.153Z,3.44
2022-12-04T11:21:30.134Z,3.43
2022-12-04T11:23:35.491Z,3.46
2022-12-04T11:25:45.946Z,3.47
2022-12-04T11:27:51.651Z,3.46
2022-12-04T11:29:55.402Z,3.43
2022-12-04T11:32:04.080Z,3.42
2022-12-04T11:34:19.507Z,3.40
2022-12-04T11:36:25.889Z,3.40
2022-12-04T11:38:32.979Z,3.38
2022-12-04T11:40:37.251Z,3.41
2022-12-04T11:42:41.714Z,3.41
2022-12-04T11:44:52.402Z,3.40
2022-12-04T11:46:56.872Z,3.41
2022-12-04T11:48:59.657Z,3.40
2022-12-04T11:51:13.564Z,3.42
2022-12-04T11:53:19.227Z,3.44
2022-12-04T11:55:29.276Z,3.47
2022-12-04T11:57:42.554Z,3.47
2022-12-04T12:00:05.834Z,3.47
2022-12-04T12:02:25.798Z,3.49
2022-12-04T12:05:00.235Z,3.50
2022-12-04T12:07:21.158Z,3.53
2022-12-04T12:09:30.448Z,3.54
2022-12-04T12:11:38.956Z,3.54
2022-12-04T12:13:50.971Z,3.55
2022-12-04T12:16:04.407Z,3.56
2022-12-04T12:18:21.037Z,3.54
2022-12-04T12:20:33.438Z,3.55
2022-12-04T12:23:02.314Z,3.57
2022-12-04T12:25:17.053Z,3.61
2022-12-04T12:27:35.117Z,3.60
2022-12-04T12:29:52.498Z,3.61
2022-12-04T12:32:07.750Z,3.61
2022-12-04T12:34:14.942Z,3.62
2022-12-04T12:36:21.604Z,3.61
2022-12-04T12:38:28.452Z,3.57
2022-12-04T12:40:36.060Z,3.60
2022-12-04T12:42:44.158Z,3.58
2022-12-04T12:44:53.208Z,3.59
2022-12-04T12:47:01.591Z,3.55
2022-12-04T12:49:13.419Z,3.56
2022-12-04T12:51:32.221Z,3.55
2022-12-04T12:53:40.586Z,3.58
2022-12-04T12:55:47.675Z,3.58
2022-12-04T12:58:00.483Z,3.56
2022-12-04T13:00:14.086Z,3.58
2022-12-04T13:02:28.370Z,3.51
2022-12-04T13:04:36.391Z,3.57
2022-12-04T13:06:42.839Z,3.54
2022-12-04T13:08:57.708Z,3.53
2022-12-04T13:11:06.497Z,3.52
2022-12-04T13:13:15.732Z,3.53
2022-12-04T13:15:23.040Z,3.51
2022-12-04T13:17:34.491Z,3.56
2022-12-04T13:19:44.138Z,3.57
2022-12-04T13:21:52.071Z,3.58
2022-12-04T13:24:21.719Z,3.58
2022-12-04T13:26:37.475Z,3.56
2022-12-04T13:28:51.961Z,3.61
2022-12-04T13:31:01.959Z,3.63
2022-12-04T13:33:29.035Z,3.60
2022-12-04T13:35:51.714Z,3.60
2022-12-04T13:38:12.010Z,3.60
2022-12-04T13:40:43.163Z,3.53
2022-12-04T13:42:46.093Z,3.58
2022-12-04T13:44:55.382Z,3.60
2022-12-04T13:47:00.787Z,3.59
2022-12-04T13:49:25.065Z,3.60
2022-12-04T13:51:37.430Z,3.60
2022-12-04T13:53:40.405Z,3.62
2022-12-04T13:55:43.083Z,3.60
2022-12-04T13:57:54.352Z,3.60
2022-12-04T14:00:06.353Z,3.56
2022-12-04T14:02:28.134Z,3.55
2022-12-04T14:04:36.785Z,3.57
2022-12-04T14:06:43.626Z,3.56
2022-12-04T14:08:46.366Z,3.56
2022-12-04T14:11:00.727Z,3.59
2022-12-04T14:13:07.979Z,3.58
2022-12-04T14:15:22.649Z,3.59
2022-12-04T14:17:30.022Z,3.60
2022-12-04T14:19:36.713Z,3.63
2022-12-04T14:21:40.942Z,3.64
2022-12-04T14:23:44.778Z,3.65
2022-12-04T14:25:47.353Z,3.64
2022-12-04T14:27:52.902Z,3.64
2022-12-04T14:29:58.224Z,3.59
2022-12-04T14:32:08.919Z,3.63
2022-12-04T14:34:22.678Z,3.63
2022-12-04T14:36:29.183Z,3.60
2022-12-04T14:38:33.694Z,3.64
2022-12-04T14:40:40.166Z,3.64
2022-12-04T14:42:42.903Z,3.57
2022-12-04T14:44:47.318Z,3.60
2022-12-04T14:46:53.903Z,3.57
2022-12-04T14:49:04.958Z,3.57
2022-12-04T14:51:16.878Z,3.56
2022-12-04T14:53:32.155Z,3.54
2022-12-04T14:55:45.499Z,3.54
2022-12-04T14:57:54.101Z,3.52
2022-12-04T14:59:57.501Z,3.52
2022-12-04T15:02:00.314Z,3.55
2022-12-04T15:04:13.424Z,3.58
2022-12-04T15:06:22.644Z,3.53
2022-12-04T15:08:26.596Z,3.52
2022-12-04T15:10:49.431Z,3.54
2022-12-04T15:12:54.392Z,3.54
2022-12-04T15:15:00.356Z,3.53
2022-12-04T15:17:03.838Z,3.53
2022-12-04T15:19:06.782Z,3.50
2022-12-04T15:21:12.195Z,3.52
2022-12-04T15:23:16.946Z,3.52
2022-12-04T15:25:23.715Z,3.54
2022-12-04T15:27:32.332Z,3.54
2022-12-04T15:29:41.459Z,3.52
2022-12-04T15:31:50.266Z,3.55
2022-12-04T15:33:57.372Z,3.56
2022-12-04T15:36:04.238Z,3.58
2022-12-04T15:38:06.978Z,3.58
2022-12-04T15:40:19.517Z,3.55
2022-12-04T15:42:28.278Z,3.56
2022-12-04T15:44:32.933Z,3.53
2022-12-04T15:46:37.921Z,3.56
2022-12-04T15:48:45.129Z,3.56
2022-12-04T15:50:57.178Z,3.53
2022-12-04T15:53:03.758Z,3.53
2022-12-04T15:55:08.974Z,3.55
2022-12-04T15:57:21.641Z,3.55
2022-12-04T15:59:28.130Z,3.56
2022-12-04T16:01:39.994Z,3.54
2022-12-04T16:03:47.946Z,3.54
2022-12-04T16:05:50.665Z,3.55
2022-12-04T16:07:55.406Z,3.55
2022-12-04T16:10:03.603Z,3.55
2022-12-04T16:12:19.285Z,3.53
2022-12-04T16:14:21.855Z,3.53
2022-12-04T16:16:26.023Z,3.54
2022-12-04T16:18:29.750Z,3.53
2022-12-04T16:20:32.704Z,3.53
2022-12-04T16:22:35.449Z,3.52
2022-12-04T16:24:39.473Z,3.52
2022-12-04T16:26:42.808Z,3.48
2022-12-04T16:28:45.588Z,3.47
2022-12-04T16:30:48.684Z,3.49
2022-12-04T16:32:53.905Z,3.49
2022-12-04T16:34:56.911Z,3.49
2022-12-04T16:37:00.416Z,3.47
2022-12-04T16:39:03.016Z,3.49
2022-12-04T16:41:06.349Z,3.49
2022-12-04T16:43:12.141Z,3.48
2022-12-04T16:45:28.070Z,3.43
2022-12-04T16:47:30.657Z,3.45
2022-12-04T16:49:34.562Z,3.44
2022-12-04T16:51:37.691Z,3.47
2022-12-04T16:53:40.470Z,3.49
2022-12-04T16:55:45.863Z,3.53
2022-12-04T16:57:49.015Z,3.56
2022-12-04T16:59:51.574Z,3.53
2022-12-04T17:01:54.501Z,3.53
2022-12-04T17:03:57.300Z,3.58
2022-12-04T17:06:02.454Z,3.55
2022-12-04T17:08:05.281Z,3.56
2022-12-04T17:10:08.701Z,3.58
2022-12-04T17:12:11.397Z,3.55
2022-12-04T17:14:14.928Z,3.55
2022-12-04T17:16:19.731Z,3.55
2022-12-04T17:18:22.611Z,3.55
2022-12-04T17:20:25.350Z,3.56
2022-12-04T17:22:31.089Z,3.57
2022-12-04T17:24:33.929Z,3.55
2022-12-04T17:26:36.726Z,3.56
2022-12-04T17:28:39.968Z,3.55
2022-12-04T17:30:45.965Z,3.59
2022-12-04T17:32:49.884Z,3.60
2022-12-04T17:34:54.009Z,3.61
2022-12-04T17:36:56.877Z,3.61
2022-12-04T17:39:02.702Z,3.61
2022-12-04T17:41:06.070Z,3.62
2022-12-04T17:43:08.775Z,3.61
2022-12-04T17:45:14.285Z,3.59
2022-12-04T17:47:16.934Z,3.57
2022-12-04T17:49:19.551Z,3.56
2022-12-04T17:51:23.646Z,3.56
2022-12-04T17:53:26.219Z,3.54
2022-12-04T17:55:30.157Z,3.55
2022-12-04T17:57:34.860Z,3.54
2022-12-04T17:59:37.578Z,3.53
2022-12-04T18:01:40.366Z,3.54
2022-12-04T18:03:43.859Z,3.53
2022-12-04T18:05:46.478Z,3.53
2022-12-04T18:07:49.151Z,3.54
2022-12-04T18:09:51.806Z,3.54
2022-12-04T18:11:58.416Z,3.54
2022-12-04T18:14:07.132Z,3.55
2022-12-04T18:16:12.990Z,3.53
2022-12-04T18:18:18.810Z,3.53
2022-12-04T18:20:21.611Z,3.55
2022-12-04T18:22:24.278Z,3.52
2022-12-04T18:24:27.766Z,3.47
2022-12-04T18:26:34.221Z,3.49
2022-12-04T18:28:38.157Z,3.47
2022-12-04T18:30:40.818Z,3.47
2022-12-04T18:32:44.118Z,3.46
2022-12-04T18:34:46.729Z,3.47
2022-12-04T18:36:49.836Z,3.42
2022-12-04T18:38:55.449Z,3.45
2022-12-04T18:41:02.780Z,3.47
2022-12-04T18:43:05.390Z,3.48
2022-12-04T18:45:11.872Z,3.47
2022-12-04T18:47:14.451Z,3.47
2022-12-04T18:49:17.052Z,3.43
2022-12-04T18:51:23.388Z,3.47
2022-12-04T18:53:26.153Z,3.48
2022-12-04T18:55:29.015Z,3.47
2022-12-04T18:57:31.604Z,3.46
2022-12-04T18:59:34.882Z,3.46
2022-12-04T19:01:39.388Z,3.47
2022-12-04T19:03:42.841Z,3.54
2022-12-04T19:05:49.645Z,3.50
2022-12-04T19:07:53.735Z,3.45
2022-12-04T19:10:11.957Z,3.34
2022-12-04T19:12:14.760Z,3.30
2022-12-04T19:14:23.482Z,3.32
2022-12-04T19:16:26.740Z,3.32
2022-12-04T19:18:31.019Z,3.29
2022-12-04T19:20:33.613Z,3.34
2022-12-04T19:22:36.508Z,3.36
2022-12-04T19:24:39.638Z,3.38
2022-12-04T19:26:42.900Z,3.39
2022-12-04T19:28:46.413Z,3.38
2022-12-04T19:30:48.983Z,3.35
2022-12-04T19:32:51.596Z,3.36
2022-12-04T19:34:55.542Z,3.38
2022-12-04T19:36:58.178Z,3.32
2022-12-04T19:39:02.105Z,3.36
2022-12-04T19:41:11.900Z,3.33
2022-12-04T19:43:14.572Z,3.40
2022-12-04T19:45:17.292Z,3.31
2022-12-04T19:47:20.057Z,3.30
2022-12-04T19:49:22.654Z,3.28
2022-12-04T19:51:27.059Z,3.29
2022-12-04T19:53:29.610Z,3.30
2022-12-04T19:55:32.286Z,3.32
2022-12-04T19:57:34.865Z,3.31
2022-12-04T19:59:41.755Z,3.35
2022-12-04T20:01:47.270Z,3.36
2022-12-04T20:03:49.867Z,3.30
2022-12-04T20:05:52.526Z,3.34
2022-12-04T20:10:00.157Z,3.31
2022-12-04T20:12:03.104Z,3.31
2022-12-04T20:14:07.370Z,3.34
2022-12-04T20:16:12.567Z,3.34
2022-12-04T20:18:15.258Z,3.38
2022-12-04T20:20:18.091Z,3.38
2022-12-04T20:22:20.678Z,3.40
2022-12-04T20:24:24.643Z,3.38
2022-12-04T20:26:30.132Z,3.42
2022-12-04T20:28:33.006Z,3.41
2022-12-04T20:30:35.644Z,3.44
2022-12-04T20:32:38.427Z,3.46
2022-12-04T20:34:43.691Z,3.46
2022-12-04T20:36:48.538Z,3.45
2022-12-04T20:38:55.329Z,3.49
2022-12-04T20:41:03.285Z,3.46
2022-12-04T20:43:05.938Z,3.48
2022-12-04T20:45:09.440Z,3.41
2022-12-04T20:47:12.161Z,3.44
2022-12-04T20:49:21.101Z,3.47
2022-12-04T20:51:26.746Z,3.45
2022-12-04T20:53:30.228Z,3.43
2022-12-04T20:55:32.879Z,3.42
2022-12-04T20:57:37.383Z,3.56
2022-12-04T20:59:40.071Z,3.47
2022-12-04T21:01:43.036Z,3.48
2022-12-04T21:03:46.766Z,3.48
2022-12-04T21:05:50.717Z,3.50
2022-12-04T21:07:53.358Z,3.47
2022-12-04T21:09:56.672Z,3.49
2022-12-04T21:12:00.088Z,3.50
2022-12-04T21:14:23.690Z,3.52
2022-12-04T21:16:25.526Z,3.51
2022-12-04T21:18:28.347Z,3.52
2022-12-04T21:20:30.991Z,3.54
2022-12-04T21:22:33.683Z,3.54
2022-12-04T21:24:38.736Z,3.54
2022-12-04T21:26:41.935Z,3.46
2022-12-04T21:28:44.577Z,3.45
2022-12-04T21:30:48.608Z,3.46
2022-12-04T21:32:51.391Z,3.47
2022-12-04T21:34:53.977Z,3.50
2022-12-04T21:36:56.687Z,3.49
2022-12-04T21:38:59.346Z,3.49
2022-12-04T21:41:02.367Z,3.48
2022-12-04T21:43:04.004Z,3.51
2022-12-04T21:45:08.861Z,3.51
2022-12-04T21:47:12.829Z,3.52
2022-12-04T21:49:17.394Z,3.52
2022-12-04T21:51:48.276Z,3.52
2022-12-04T21:53:42.762Z,3.49
2022-12-04T21:55:48.933Z,3.48
2022-12-04T21:57:51.873Z,3.48
2022-12-04T21:59:54.763Z,3.35
2022-12-04T22:01:57.715Z,3.39
2022-12-04T22:04:01.729Z,3.41
2022-12-04T22:06:04.508Z,3.42
2022-12-04T22:08:08.095Z,3.34
2022-12-04T22:10:11.238Z,3.40
2022-12-04T22:12:47.439Z,3.40
2022-12-04T22:14:36.491Z,3.41
2022-12-04T22:16:42.828Z,3.44
2022-12-04T22:18:46.463Z,3.43
2022-12-04T22:20:50.361Z,3.46
2022-12-04T22:22:53.110Z,3.42
2022-12-04T22:24:55.733Z,3.42
2022-12-04T22:26:58.332Z,3.44
2022-12-04T22:29:01.155Z,3.46
2022-12-04T22:31:04.647Z,3.44
2022-12-04T22:33:07.574Z,3.45
2022-12-04T22:35:10.684Z,3.46
2022-12-04T22:37:14.661Z,3.46
2022-12-04T22:39:17.251Z,3.47
2022-12-04T22:41:24.917Z,3.49
2022-12-04T22:43:27.828Z,3.47
2022-12-04T22:45:30.541Z,3.49
2022-12-04T22:47:33.140Z,3.50
2022-12-04T22:49:35.801Z,3.46
2022-12-04T22:51:38.374Z,3.51
2022-12-04T22:53:46.733Z,3.52
2022-12-04T22:55:49.397Z,3.54
2022-12-04T22:57:51.981Z,3.57
2022-12-04T22:59:55.010Z,3.57
2022-12-04T23:01:57.956Z,3.58
2022-12-04T23:04:01.517Z,3.57
2022-12-04T23:06:04.583Z,3.52
2022-12-04T23:08:07.448Z,3.56
2022-12-04T23:10:11.525Z,3.50
2022-12-04T23:12:15.041Z,3.54
2022-12-04T23:14:17.660Z,3.55
2022-12-04T23:16:21.546Z,3.47
2022-12-04T23:18:24.246Z,3.61
2022-12-04T23:20:26.843Z,3.78
2022-12-04T23:22:29.446Z,3.61
2022-12-04T23:24:33.310Z,3.50
2022-12-04T23:26:42.123Z,3.46
2022-12-04T23:28:44.766Z,3.58
2022-12-04T23:30:47.632Z,3.49
2022-12-04T23:32:50.293Z,3.43
2022-12-04T23:34:53.016Z,3.41
2022-12-04T23:36:55.676Z,3.39
2022-12-04T23:38:58.452Z,3.35
2022-12-04T23:41:02.166Z,3.34
2022-12-04T23:43:06.091Z,3.33
2022-12-04T23:45:09.431Z,3.33
2022-12-04T23:47:12.115Z,3.35
2022-12-04T23:49:14.771Z,3.37
2022-12-04T23:51:20.105Z,3.37
2022-12-04T23:53:23.113Z,3.45
2022-12-04T23:55:29.760Z,3.42
2022-12-04T23:57:35.205Z,3.39
2022-12-04T23:59:39.443Z,3.34
